CWYO2: Chewey Road

                                SHEF ID:       CWYO2     Illinois River at Chewey, OK
STATION TYPE:
Regulating: Stage = 12.00, Flow = 13730

PRECIP STAGE STAGE(2) RIV-FLOW BAT-LOAD
in ft ft cfs volt
Ccp-Rev Ccp-Rev Ccp-Rev Ccp-Rev Ccp-Rev
(America/Chicago)
04/25 00:00 0.00 8.49 8.35 6321 12.45
04/25 01:00 0.00 8.67 8.55 6640 12.44
04/25 02:00 0.00 8.69 8.60 6676 12.44
04/25 03:00 0.00 8.66 8.50 6622 12.43
04/25 04:00 0.00 8.46 8.35 6269 12.43
04/25 05:00 0.00 8.24 8.12 5893 12.42
04/25 06:00 0.00 7.97 7.86 5449 12.42
04/25 07:00 0.00 7.67 7.62 4979 12.42
04/25 08:00 0.00 7.42 7.35 4606 12.42
04/25 09:00 0.00 7.22 7.18 4319 12.48
04/25 10:00 0.00 7.06 7.01 4097 12.65
04/25 11:00 0.00 6.91 6.86 3894 12.77
04/25 12:00 0.00 6.78 6.73 3724 12.73
04/25 13:00 0.00 6.66 6.61 3570 12.75
04/25 14:00 0.00 6.54 6.51 3420 12.65
04/25 15:00 0.00 6.44 6.40 3298 12.65
04/25 16:00 0.00 6.35 6.31 3190 12.64
04/25 17:00 0.00 6.26 6.24 3084 12.62
04/25 18:00 0.00 6.18 6.17 2991 12.59
04/25 19:00 0.00 6.12 6.09 2923 12.54
04/25 20:00 0.01 6.05 6.04 2844 12.51
04/25 21:00 0.01 5.98 5.96 2767 12.50
04/25 22:00 1.16 6.01 6.00 2800 12.47
04/25 23:00 0.02 6.07 6.06 2867 12.46
Data processed at Sun 26Apr2026 04:29 GMT

NOTICE: If you are parsing this page

Please convert to using our Data API. Starting early 2026 we will be migrating to: https://water.usace.army.mil with modern pages rendered in JavaScript. When this migration completes you will no longer be able to scrape this page! CWMSDataAPI (CDA)

Timeseries IDs (TSIDs)

TSIDs used from left to right in the data table
CHEW.Precip-Inc.Total.1Hour.1Hour.Ccp-Rev
CHEW.Stage.Inst.1Hour.0.Ccp-Rev
CHEW.Stage-Alt.Inst.1Hour.0.Ccp-Rev
CHEW.Flow.Inst.1Hour.0.Ccp-Rev
CHEW.Volt-Battery Load.Inst.1Hour.0.Ccp-Rev

                            

All information presented herein is the property of the government of the United States of America and may be revised or deleted at any time without prior notice. Dissemination of this information without the expressed written consent of the Public Affairs Office, Tulsa District U.S. Army Corps of Engineers is strictly prohibited. These data are gathered electronically and, as presented, have NOT undergone any form of quality control. These data are NOT guaranteed to be valid or correct.